Time;durP1;ratioP1;P1;durP2;ratioP2;P2;SDS_P1;SDS_P2;PMS_P1;PMS_P2;Temp;Humidity;BMP_temperature;BMP_pressure;BME280_temperature;BME280_humidity;BME280_pressure;Samples;Min_cycle;Max_cycle;Signal;HPM_P1;HPM_P2
2022/11/07 00:00:38;;;;;;;23.77;10.97;;;;;;;9.79;73.13;101298.66;124537;1099;104402;-74
2022/11/07 00:03:09;;;;;;;23.77;10.87;;;;;;;9.78;73.05;101306.44;124678;1099;104220;-74
2022/11/07 00:05:49;;;;;;;23.13;10.97;;;;;;;9.74;73.37;101308.02;124749;1099;102357;-74
2022/11/07 00:08:30;;;;;;;24.20;11.00;;;;;;;9.66;72.80;101304.98;124868;1099;102007;-74
2022/11/07 00:11:02;;;;;;;23.13;11.67;;;;;;;9.65;73.45;101303.18;124580;1098;104372;-74
2022/11/07 00:13:33;;;;;;;22.97;11.27;;;;;;;9.62;72.78;101302.13;124590;1099;104214;-74
2022/11/07 00:16:07;;;;;;;22.33;10.73;;;;;;;9.59;73.32;101295.00;124619;1099;102831;-74
2022/11/07 00:18:38;;;;;;;22.48;11.33;;;;;;;9.58;73.11;101297.53;124565;1099;104192;-74
2022/11/07 00:21:11;;;;;;;20.93;10.80;;;;;;;9.55;73.21;101298.27;124555;1099;104165;-74
2022/11/07 00:23:42;;;;;;;21.43;11.07;;;;;;;9.55;73.26;101295.64;124602;1099;102832;-74
2022/11/07 00:26:14;;;;;;;24.07;11.50;;;;;;;9.54;73.42;101294.75;124621;1099;102911;-74
2022/11/07 00:28:46;;;;;;;26.97;12.03;;;;;;;9.51;72.84;101298.94;124597;1098;104179;-74
2022/11/07 00:31:18;;;;;;;24.67;12.27;;;;;;;9.45;72.48;101298.62;124601;1099;104172;-74
2022/11/07 00:33:49;;;;;;;22.40;11.87;;;;;;;9.43;72.72;101297.65;124713;1099;101845;-74
2022/11/07 00:36:23;;;;;;;23.23;12.00;;;;;;;9.43;72.91;101305.51;124791;1099;102216;-75
2022/11/07 00:38:55;;;;;;;22.25;11.53;;;;;;;9.40;72.89;101307.96;124770;1099;104210;-74
2022/11/07 00:41:26;;;;;;;26.40;11.67;;;;;;;9.37;72.23;101299.94;124795;1099;101921;-74
2022/11/07 00:43:58;;;;;;;25.70;12.37;;;;;;;9.35;72.35;101298.13;124776;1099;104235;-74
2022/11/07 00:46:29;;;;;;;21.47;11.20;;;;;;;9.33;72.32;101301.47;124643;1099;104245;-74
2022/11/07 00:49:00;;;;;;;23.23;11.50;;;;;;;9.32;72.23;101294.45;124639;1099;104322;-74
2022/11/07 00:51:31;;;;;;;22.47;10.97;;;;;;;9.29;72.37;101292.56;124594;1099;104204;-74
2022/11/07 00:54:04;;;;;;;25.67;11.77;;;;;;;9.26;72.39;101301.98;124603;1099;104248;-74
2022/11/07 00:56:36;;;;;;;23.43;12.13;;;;;;;9.24;72.03;101296.66;124710;1099;104207;-74
2022/11/07 00:59:07;;;;;;;22.77;12.40;;;;;;;9.21;72.30;101296.50;124759;1099;104217;-74
2022/11/07 01:01:38;;;;;;;22.77;11.80;;;;;;;9.18;71.80;101293.71;124730;1099;102921;-74
2022/11/07 01:07:03;;;;;;;23.50;12.53;;;;;;;9.11;71.70;101296.80;124708;1099;104309;-74
2022/11/07 01:09:34;;;;;;;26.00;12.37;;;;;;;9.09;71.74;101295.83;124737;1099;102341;-74
2022/11/07 01:12:06;;;;;;;23.43;12.27;;;;;;;9.07;71.81;101290.51;124857;1099;104172;-74
2022/11/07 01:14:37;;;;;;;24.30;12.20;;;;;;;9.04;71.59;101286.80;124863;1099;104261;-75
2022/11/07 01:17:09;;;;;;;25.53;12.13;;;;;;;9.00;72.24;101284.02;124791;1099;104332;-74
2022/11/07 01:19:40;;;;;;;24.67;12.50;;;;;;;8.98;72.22;101290.00;124856;1099;102815;-74
2022/11/07 01:22:11;;;;;;;23.47;12.10;;;;;;;8.95;72.19;101282.88;124711;1099;104280;-74
2022/11/07 01:24:42;;;;;;;26.03;13.30;;;;;;;8.92;71.45;101282.70;124808;1099;104182;-74
2022/11/07 01:27:14;;;;;;;23.00;11.53;;;;;;;8.90;71.52;101286.97;124771;1098;104184;-74
2022/11/07 01:29:45;;;;;;;25.05;12.25;;;;;;;8.88;71.88;101292.92;124657;1098;104348;-74
2022/11/07 01:32:16;;;;;;;24.87;12.77;;;;;;;8.88;72.14;101290.30;124760;1099;104156;-74
2022/11/07 01:34:47;;;;;;;26.57;13.77;;;;;;;8.86;72.12;101290.22;124688;1099;103280;-75
2022/11/07 01:37:18;;;;;;;26.67;12.90;;;;;;;8.85;71.48;101293.67;124325;1099;104265;-75
2022/11/07 01:39:50;;;;;;;26.27;12.63;;;;;;;8.85;71.75;101298.91;124732;1099;104392;-74
2022/11/07 01:42:21;;;;;;;26.00;12.97;;;;;;;8.84;72.16;101293.59;124706;1099;104333;-75
2022/11/07 01:45:00;;;;;;;22.77;12.40;;;;;;;8.83;71.54;101292.66;124687;1099;104076;-74
2022/11/07 01:47:35;;;;;;;24.53;13.00;;;;;;;8.82;71.77;101290.89;124779;1099;104236;-74
2022/11/07 01:50:08;;;;;;;23.23;12.47;;;;;;;8.83;72.10;101289.16;124716;1099;104258;-74
2022/11/07 01:52:43;;;;;;;22.83;11.97;;;;;;;8.82;71.50;101280.42;124602;1099;104869;-74
2022/11/07 01:55:17;;;;;;;23.47;13.10;;;;;;;8.83;71.47;101286.55;124680;1099;104172;-74
2022/11/07 01:57:52;;;;;;;24.77;12.87;;;;;;;8.84;71.44;101283.12;124733;1099;104178;-75
2022/11/07 02:00:25;;;;;;;24.80;13.37;;;;;;;8.84;72.14;101280.50;124488;1099;104245;-74
2022/11/07 02:02:59;;;;;;;25.43;13.23;;;;;;;8.83;71.49;101278.69;124761;1098;104245;-74
2022/11/07 02:05:35;;;;;;;27.90;14.00;;;;;;;8.82;71.36;101288.27;124761;1099;103284;-74
2022/11/07 02:08:08;;;;;;;25.37;13.40;;;;;;;8.79;71.35;101277.63;124737;1098;103639;-74
2022/11/07 02:10:40;;;;;;;24.82;13.65;;;;;;;8.77;72.06;101280.16;124795;1098;104185;-74
2022/11/07 02:13:17;;;;;;;27.50;14.63;;;;;;;8.73;71.52;101282.53;124735;1098;102866;-74
2022/11/07 02:15:49;;;;;;;28.77;14.40;;;;;;;8.67;71.48;101276.95;124769;1099;103993;-75
2022/11/07 02:18:21;;;;;;;27.63;14.60;;;;;;;8.62;71.27;101281.92;124766;1099;104315;-75
2022/11/07 02:20:55;;;;;;;25.20;14.03;;;;;;;8.61;71.26;101278.38;124691;1099;104239;-74
2022/11/07 02:23:34;;;;;;;27.27;14.23;;;;;;;8.61;71.45;101283.61;124673;1098;104255;-74
2022/11/07 02:26:05;;;;;;;27.13;13.33;;;;;;;8.62;71.23;101277.58;124802;1099;104275;-74
2022/11/07 02:28:40;;;;;;;24.90;13.90;;;;;;;8.62;71.52;101279.31;124752;1099;104173;-74
2022/11/07 02:31:11;;;;;;;26.03;13.30;;;;;;;8.59;71.61;101274.80;124757;1099;102841;-74
2022/11/07 02:33:42;;;;;;;25.87;14.27;;;;;;;8.55;71.55;101278.04;124689;1099;104192;-74
2022/11/07 02:36:18;;;;;;;28.33;14.77;;;;;;;8.49;71.79;101268.95;124739;1098;104205;-74
2022/11/07 02:38:56;;;;;;;27.97;14.20;;;;;;;8.46;71.63;101274.91;124801;1099;102354;-74
2022/11/07 02:41:30;;;;;;;25.83;13.70;;;;;;;8.43;71.85;101274.69;124783;1099;104177;-74
2022/11/07 02:44:06;;;;;;;24.97;13.10;;;;;;;8.40;71.18;101282.41;124807;1099;104283;-74
2022/11/07 02:46:38;;;;;;;31.53;14.23;;;;;;;8.40;71.87;101282.41;124701;1099;104172;-74
2022/11/07 02:49:09;;;;;;;26.65;13.45;;;;;;;8.40;71.90;101282.41;124829;1099;104781;-74
2022/11/07 02:51:40;;;;;;;25.47;13.17;;;;;;;8.39;71.91;101277.97;124769;1099;104217;-74
2022/11/07 02:54:11;;;;;;;25.65;13.55;;;;;;;8.40;71.89;101285.02;124776;1099;104288;-74
2022/11/07 02:56:42;;;;;;;27.50;14.37;;;;;;;8.37;71.76;101275.27;124857;1099;104185;-74
2022/11/07 02:59:13;;;;;;;27.83;14.93;;;;;;;8.36;71.69;101286.53;124796;1099;104248;-74
2022/11/07 03:01:44;;;;;;;25.00;13.53;;;;;;;8.31;71.82;101287.99;124822;1099;104182;-74
2022/11/07 03:04:16;;;;;;;26.03;13.50;;;;;;;8.25;71.18;101290.25;124794;1099;102828;-74
2022/11/07 03:06:47;;;;;;;25.90;13.80;;;;;;;8.18;71.67;101295.92;124865;1099;102524;-74
2022/11/07 03:09:18;;;;;;;27.63;13.53;;;;;;;8.12;71.19;101291.27;124821;1099;104211;-74
2022/11/07 03:11:49;;;;;;;24.83;12.77;;;;;;;8.03;71.32;101285.50;124770;1099;104163;-74
2022/11/07 03:14:20;;;;;;;26.90;12.63;;;;;;;7.97;71.55;101288.64;124615;1098;104182;-74
2022/11/07 03:16:51;;;;;;;25.87;13.03;;;;;;;7.87;70.79;101295.05;124740;1099;104238;-74
2022/11/07 03:19:22;;;;;;;26.40;13.13;;;;;;;7.76;70.50;101295.20;124335;1099;104429;-74
2022/11/07 03:21:54;;;;;;;26.30;13.07;;;;;;;7.65;71.05;101298.09;124690;1099;103505;-74
2022/11/07 03:24:25;;;;;;;28.43;14.13;;;;;;;7.60;71.26;101288.17;124710;1099;104085;-74
2022/11/07 03:26:56;;;;;;;26.00;13.10;;;;;;;7.55;71.13;101296.62;124730;1099;104351;-74
2022/11/07 03:29:27;;;;;;;26.03;13.83;;;;;;;7.50;70.97;101290.22;124754;1099;104204;-74
2022/11/07 03:32:04;;;;;;;27.73;13.87;;;;;;;7.47;71.20;101297.87;124671;1099;104294;-74
2022/11/07 03:34:47;;;;;;;25.87;13.10;;;;;;;7.44;71.11;101302.02;124860;1099;104188;-74
2022/11/07 03:37:20;;;;;;;26.07;12.97;;;;;;;7.42;70.91;101301.00;124325;1103;102543;-74
2022/11/07 03:39:51;;;;;;;26.43;13.07;;;;;;;7.38;70.89;101302.53;124725;1099;104162;-74
2022/11/07 03:42:22;;;;;;;30.17;13.10;;;;;;;7.36;70.78;101301.55;124804;1099;102171;-74
2022/11/07 03:44:53;;;;;;;27.97;13.23;;;;;;;7.32;71.05;101291.70;124745;1099;104211;-74
2022/11/07 03:47:25;;;;;;;28.23;13.87;;;;;;;7.28;71.23;101302.79;124703;1098;104298;-74
2022/11/07 03:49:56;;;;;;;27.87;13.10;;;;;;;7.25;71.22;101306.10;124708;1098;104364;-74
2022/11/07 03:52:27;;;;;;;24.33;13.10;;;;;;;7.23;70.96;101309.41;124809;1099;104246;-74
2022/11/07 03:54:58;;;;;;;27.70;13.17;;;;;;;7.20;70.92;101304.92;124770;1099;104275;-74
2022/11/07 03:57:29;;;;;;;26.37;12.73;;;;;;;7.15;70.76;101302.03;124457;1099;104280;-75
2022/11/07 04:00:00;;;;;;;27.17;14.00;;;;;;;7.14;71.19;101308.05;124774;1099;104178;-74
2022/11/07 04:02:31;;;;;;;29.33;14.07;;;;;;;7.12;70.77;101308.74;124690;1099;104290;-74
2022/11/07 04:05:03;;;;;;;25.07;12.77;;;;;;;7.08;71.19;101299.83;124766;1099;104166;-74
2022/11/07 04:07:34;;;;;;;28.00;13.40;;;;;;;7.06;71.07;101303.14;124741;1098;102793;-75
2022/11/07 04:10:06;;;;;;;29.00;13.73;;;;;;;7.01;70.94;101300.23;124774;1098;104166;-74
2022/11/07 04:18:15;;;;;;;26.90;13.47;;;;;;;6.93;71.33;101309.30;124746;1099;103000;-75
2022/11/07 04:20:46;;;;;;;27.33;13.53;;;;;;;6.89;71.18;101309.90;124745;1099;104278;-74
2022/11/07 04:23:17;;;;;;;25.80;13.30;;;;;;;6.83;70.98;101308.72;124725;1098;102704;-74
2022/11/07 04:28:37;;;;;;;29.97;13.33;;;;;;;6.78;71.22;101306.64;124730;1099;104245;-74
2022/11/07 04:31:08;;;;;;;25.67;13.57;;;;;;;6.75;71.05;101306.44;124759;1099;102858;-74
2022/11/07 04:33:40;;;;;;;28.60;13.47;;;;;;;6.74;71.13;101304.63;124761;1098;104169;-73
2022/11/07 04:36:11;;;;;;;25.35;12.60;;;;;;;6.73;71.27;101302.81;124748;1099;104185;-74
2022/11/07 04:38:42;;;;;;;34.63;15.60;;;;;;;6.69;71.19;101306.94;124678;1098;104163;-74
2022/11/07 04:41:22;;;;;;;28.67;14.17;;;;;;;6.63;71.39;101303.94;124719;1098;104166;-74
2022/11/07 04:43:53;;;;;;;28.70;14.20;;;;;;;6.58;71.11;101302.75;124741;1098;102524;-74
2022/11/07 04:46:24;;;;;;;29.25;14.80;;;;;;;6.54;71.33;101306.84;124717;1099;104178;-74
2022/11/07 04:48:55;;;;;;;27.03;14.00;;;;;;;6.51;71.38;101316.17;124687;1099;104198;-74
2022/11/07 04:51:27;;;;;;;27.90;14.25;;;;;;;6.47;71.47;101310.77;124763;1098;101932;-74
2022/11/07 04:53:58;;;;;;;29.93;15.40;;;;;;;6.43;71.56;101311.36;124758;1099;104444;-75
2022/11/07 04:56:29;;;;;;;28.40;14.70;;;;;;;6.37;71.41;101310.95;124748;1099;104183;-75
2022/11/07 04:59:00;;;;;;;28.47;15.67;;;;;;;6.33;71.78;101311.58;124754;1099;104173;-75
2022/11/07 05:01:31;;;;;;;30.07;14.87;;;;;;;6.33;71.62;101310.65;124787;1099;102328;-74
2022/11/07 05:04:02;;;;;;;32.50;15.47;;;;;;;6.31;71.61;101307.98;124559;1099;104412;-74
2022/11/07 05:06:36;;;;;;;30.87;15.20;;;;;;;6.31;71.41;101318.41;124724;1099;104300;-75
2022/11/07 05:09:09;;;;;;;29.47;14.30;;;;;;;6.29;71.44;101315.70;124534;1099;104246;-74
2022/11/07 05:11:40;;;;;;;29.70;14.90;;;;;;;6.30;71.41;101321.80;124736;1099;104210;-75
2022/11/07 05:14:11;;;;;;;29.33;14.73;;;;;;;6.28;71.73;101323.41;124766;1099;104265;-74
2022/11/07 05:16:44;;;;;;;32.37;15.30;;;;;;;6.29;71.70;101331.33;124732;1098;104291;-75
2022/11/07 05:19:17;;;;;;;27.80;14.93;;;;;;;6.32;71.78;101329.72;124761;1098;104667;-74
2022/11/07 05:23:10;;;;;;;28.80;14.70;;;;;;;6.33;71.78;101327.22;124714;1099;102933;-75
2022/11/07 05:24:40;;;;;;;28.30;14.90;;;;;;;6.34;71.85;101331.61;124778;1098;104288;-75
2022/11/07 05:27:18;;;;;;;29.80;15.10;;;;;;;6.34;71.62;101326.39;124517;1099;102394;-74
2022/11/07 05:29:49;;;;;;;30.40;14.97;;;;;;;6.37;71.76;101333.52;124770;1099;102923;-75
2022/11/07 05:32:21;;;;;;;33.37;15.90;;;;;;;6.37;71.71;101331.81;124726;1099;104306;-74
2022/11/07 05:34:52;;;;;;;28.00;14.57;;;;;;;6.40;71.83;101336.33;124908;1099;104306;-75
2022/11/07 05:37:23;;;;;;;37.00;15.43;;;;;;;6.42;71.73;101337.33;124767;1099;103350;-75
2022/11/07 05:39:54;;;;;;;27.97;14.80;;;;;;;6.39;71.61;101345.87;124406;1099;104345;-74
2022/11/07 05:42:25;;;;;;;29.70;15.45;;;;;;;6.41;71.51;101346.86;124873;1099;104172;-75
2022/11/07 05:44:56;;;;;;;30.17;14.87;;;;;;;6.43;71.45;101357.39;124869;1098;104287;-75
2022/11/07 05:47:27;;;;;;;31.03;15.17;;;;;;;6.45;71.64;101355.78;124837;1099;102875;-74
2022/11/07 05:49:58;;;;;;;29.37;15.07;;;;;;;6.45;71.71;101356.70;124776;1099;104245;-75
2022/11/07 05:52:30;;;;;;;28.73;14.57;;;;;;;6.46;71.58;101358.48;124861;1099;104268;-75
2022/11/07 05:55:01;;;;;;;28.33;14.63;;;;;;;6.47;71.67;101357.70;124784;1099;104194;-74
2022/11/07 05:57:32;;;;;;;28.67;14.27;;;;;;;6.49;72.00;101360.41;124708;1099;104251;-74
2022/11/07 06:00:04;;;;;;;30.37;14.33;;;;;;;6.53;71.74;101359.81;124845;1099;104178;-74
2022/11/07 06:02:44;;;;;;;28.10;14.75;;;;;;;6.53;71.86;101354.60;124894;1099;102841;-74
2022/11/07 06:05:18;;;;;;;31.50;14.23;;;;;;;6.54;71.85;101363.31;124867;1099;102928;-74
2022/11/07 06:07:49;;;;;;;27.63;13.10;;;;;;;6.52;72.01;101362.32;124679;1099;104586;-74
2022/11/07 06:10:21;;;;;;;27.50;13.37;;;;;;;6.48;71.86;101366.41;124636;1099;104249;-74
2022/11/07 06:13:00;;;;;;;29.07;13.43;;;;;;;6.50;71.97;101363.91;124569;1099;104166;-74
2022/11/07 06:15:34;;;;;;;32.87;14.40;;;;;;;6.54;71.83;101358.10;124524;1099;104281;-74
2022/11/07 06:18:07;;;;;;;29.30;14.00;;;;;;;6.57;71.80;101358.30;124563;1099;104214;-74
2022/11/07 06:20:38;;;;;;;33.97;14.80;;;;;;;6.60;71.77;101361.11;124609;1098;104338;-74
2022/11/07 06:23:10;;;;;;;32.97;13.97;;;;;;;6.65;71.78;101360.62;124192;1099;104267;-73
2022/11/07 06:25:44;;;;;;;31.20;14.00;;;;;;;6.70;71.87;101360.92;125746;1098;102751;-74
2022/11/07 06:28:16;;;;;;;30.73;14.03;;;;;;;6.75;71.60;101356.00;124590;1099;104185;-73
2022/11/07 06:30:47;;;;;;;29.63;14.03;;;;;;;6.84;71.72;101353.98;124601;1099;104242;-74
2022/11/07 06:33:21;;;;;;;33.67;14.43;;;;;;;6.93;71.88;101359.77;124602;1099;104242;-75
2022/11/07 06:35:52;;;;;;;31.10;14.43;;;;;;;6.97;71.95;101361.78;124595;1099;102841;-74
2022/11/07 06:38:28;;;;;;;30.60;14.13;;;;;;;7.01;71.83;101355.97;125065;1098;104251;-75
2022/11/07 06:41:09;;;;;;;29.33;13.87;;;;;;;7.05;71.50;101353.55;124633;1098;104305;-74
2022/11/07 06:43:41;;;;;;;29.87;13.90;;;;;;;7.10;71.56;101359.95;124250;1099;104214;-75
2022/11/07 06:46:16;;;;;;;30.13;12.83;;;;;;;7.12;71.52;101356.64;124593;1099;104463;-76
2022/11/07 06:48:47;;;;;;;29.97;13.80;;;;;;;7.16;71.54;101362.95;124651;1099;104201;-75
2022/11/07 06:51:18;;;;;;;23.70;11.70;;;;;;;7.16;71.16;101358.63;124636;1099;101945;-75
2022/11/07 06:53:50;;;;;;;27.70;12.30;;;;;;;7.22;71.30;101354.62;124596;1099;104232;-74
2022/11/07 06:56:22;;;;;;;25.13;12.10;;;;;;;7.25;71.51;101357.42;124594;1099;104242;-74
2022/11/07 06:58:53;;;;;;;29.30;12.43;;;;;;;7.30;71.38;101351.66;124437;1099;104268;-75
2022/11/07 07:01:27;;;;;;;27.53;12.27;;;;;;;7.34;71.54;101355.39;124670;1099;104188;-76
2022/11/07 07:04:01;;;;;;;27.40;11.73;;;;;;;7.38;71.47;101347.81;124272;1099;104185;-76
2022/11/07 07:06:33;;;;;;;25.80;11.37;;;;;;;7.41;70.94;101349.72;124692;1099;104188;-77
2022/11/07 07:09:07;;;;;;;24.47;11.63;;;;;;;7.42;71.37;101346.31;124776;1099;104153;-75
2022/11/07 07:11:41;;;;;;;26.40;11.67;;;;;;;7.47;70.97;101344.88;124635;1099;103132;-75
2022/11/07 07:14:17;;;;;;;22.50;11.00;;;;;;;7.53;71.02;101345.26;124684;1099;102348;-74
2022/11/07 07:16:51;;;;;;;22.40;10.57;;;;;;;7.61;71.03;101348.34;125758;1099;101830;-76
2022/11/07 07:19:29;;;;;;;28.15;13.25;;;;;;;7.66;71.19;101356.45;125631;1096;104399;-75
2022/11/07 07:22:01;;;;;;;24.70;11.37;;;;;;;7.69;70.65;101359.26;124656;1099;104242;-75
2022/11/07 07:24:33;;;;;;;26.10;11.03;;;;;;;7.73;70.94;101359.53;124647;1098;104223;-74
2022/11/07 07:27:06;;;;;;;24.63;11.10;;;;;;;7.79;71.15;101355.48;124427;1099;104501;-75
2022/11/07 07:29:38;;;;;;;24.35;11.70;;;;;;;7.87;70.82;101360.38;124691;1098;104223;-75
2022/11/07 07:32:13;;;;;;;24.03;11.17;;;;;;;7.98;71.25;101354.88;124577;1099;104329;-74
2022/11/07 07:34:45;;;;;;;23.80;11.60;;;;;;;8.05;70.56;101357.05;124706;1099;104269;-75
2022/11/07 07:37:18;;;;;;;26.03;11.63;;;;;;;8.07;70.29;101355.42;124649;1099;104185;-75
2022/11/07 07:39:49;;;;;;;24.43;11.07;;;;;;;8.12;70.79;101346.16;124349;1099;104083;-75
2022/11/07 07:42:22;;;;;;;22.93;11.50;;;;;;;8.17;70.02;101346.44;124654;1099;104339;-74
2022/11/07 07:44:57;;;;;;;26.07;12.13;;;;;;;8.18;70.14;101343.91;124345;1099;102936;-75
2022/11/07 07:47:28;;;;;;;26.03;11.37;;;;;;;8.21;69.71;101354.55;124207;1099;104284;-75
2022/11/07 07:52:55;;;;;;;24.70;10.83;;;;;;;8.40;69.98;101351.29;124629;1099;104185;-75
2022/11/07 07:55:32;;;;;;;24.77;11.27;;;;;;;8.51;70.37;101345.79;125061;1099;104126;-75
2022/11/07 07:58:08;;;;;;;25.63;11.10;;;;;;;8.63;70.13;101343.88;124838;1099;104239;-76
2022/11/07 08:00:41;;;;;;;26.27;11.00;;;;;;;8.65;70.61;101316.11;124339;1100;104195;-75
2022/11/07 08:03:14;;;;;;;23.40;10.77;;;;;;;8.84;70.48;101333.73;124722;1099;104345;-75
2022/11/07 08:05:52;;;;;;;23.30;10.68;;;;;;;8.94;70.08;101325.59;124753;1098;104236;-76
2022/11/07 08:08:30;;;;;;;23.40;11.27;;;;;;;9.04;69.81;101318.22;124786;1099;104274;-76
2022/11/07 08:11:05;;;;;;;21.67;10.10;;;;;;;9.11;69.63;101315.13;124319;1099;102354;-76
2022/11/07 08:13:36;;;;;;;24.27;11.43;;;;;;;9.17;68.74;101320.70;124746;1099;102313;-74
2022/11/07 08:16:11;;;;;;;23.53;10.70;;;;;;;9.21;69.80;101324.38;124792;1098;104192;-75
2022/11/07 08:18:42;;;;;;;24.90;11.00;;;;;;;9.20;68.57;101313.02;124756;1098;104075;-75
2022/11/07 08:21:16;;;;;;;22.13;10.20;;;;;;;9.24;68.75;101320.23;124760;1099;104299;-75
2022/11/07 08:23:52;;;;;;;25.87;11.27;;;;;;;9.29;69.15;101320.48;124764;1099;102344;-75
2022/11/07 08:26:28;;;;;;;26.30;11.53;;;;;;;9.35;69.41;101313.84;125077;1099;102222;-75
2022/11/07 08:29:07;;;;;;;28.77;11.73;;;;;;;9.44;68.62;101316.06;125503;1098;104287;-75
2022/11/07 08:31:44;;;;;;;22.20;10.10;;;;;;;9.52;68.65;101319.98;124782;1099;104201;-75
2022/11/07 08:34:27;;;;;;;24.53;11.00;;;;;;;9.58;69.11;101319.39;124807;1099;102944;-75
2022/11/07 08:36:59;;;;;;;21.83;10.10;;;;;;;9.56;67.62;101314.91;124834;1099;104284;-75
2022/11/07 08:39:32;;;;;;;25.87;11.00;;;;;;;9.56;68.54;101310.55;124791;1099;102806;-75
2022/11/07 08:42:06;;;;;;;25.77;11.33;;;;;;;9.57;67.62;101308.83;124837;1099;104421;-75
2022/11/07 08:44:43;;;;;;;25.00;11.00;;;;;;;9.51;67.44;101312.94;124772;1099;104304;-75
2022/11/07 08:47:27;;;;;;;25.10;10.40;;;;;;;9.48;68.13;101319.73;124804;1099;104053;-75
2022/11/07 08:50:01;;;;;;;26.60;11.73;;;;;;;9.56;68.46;101315.80;125018;1099;103007;-76
2022/11/07 08:52:34;;;;;;;22.90;10.10;;;;;;;9.68;68.41;101311.20;124770;1099;101895;-76
2022/11/07 08:55:10;;;;;;;24.30;10.57;;;;;;;9.81;68.00;101311.84;124969;1098;102476;-75
2022/11/07 08:57:44;;;;;;;26.00;10.77;;;;;;;9.90;68.05;101309.70;125122;1099;104061;-74
2022/11/07 09:00:18;;;;;;;23.53;10.70;;;;;;;9.96;67.69;101312.63;124823;1099;104232;-74
2022/11/07 09:02:51;;;;;;;25.35;11.00;;;;;;;9.98;67.55;101303.11;124393;1099;112569;-74
2022/11/07 09:05:23;;;;;;;23.20;10.90;;;;;;;10.06;67.92;101299.14;124854;1098;104227;-74
2022/11/07 09:07:59;;;;;;;24.63;10.60;;;;;;;10.17;67.41;101299.69;126271;1098;104357;-75
2022/11/07 09:10:30;;;;;;;19.98;9.75;;;;;;;10.23;67.19;101294.75;125974;1098;104063;-75
2022/11/07 09:13:05;;;;;;;21.37;11.20;;;;;;;10.23;67.38;101289.50;125393;1098;102816;-74
2022/11/07 09:15:37;;;;;;;22.27;10.27;;;;;;;10.30;67.26;101288.11;124980;1099;103437;-74
2022/11/07 09:18:16;;;;;;;21.83;9.83;;;;;;;10.31;66.03;101286.38;124877;1099;101799;-74
2022/11/07 09:20:51;;;;;;;22.67;10.37;;;;;;;10.24;66.95;101279.94;124799;1099;104296;-74
2022/11/07 09:23:22;;;;;;;20.37;10.00;;;;;;;10.31;67.24;101274.14;124764;1099;108329;-74
2022/11/07 09:25:58;;;;;;;21.60;10.10;;;;;;;10.43;66.74;101285.27;124784;1099;104239;-76
2022/11/07 09:28:31;;;;;;;26.40;12.00;;;;;;;10.52;66.88;101281.32;124277;1099;104275;-76
2022/11/07 09:31:06;;;;;;;23.20;10.23;;;;;;;10.58;66.72;101279.88;124737;1099;104248;-75
2022/11/07 09:33:38;;;;;;;22.87;9.93;;;;;;;10.62;67.15;101257.30;124719;1099;117897;-78
2022/11/07 09:36:15;;;;;;;21.47;10.13;;;;;;;10.79;66.83;101272.11;125636;1098;102906;-74
2022/11/07 09:38:46;;;;;;;22.00;10.20;;;;;;;10.87;66.55;101261.97;124689;1099;104062;-73
2022/11/07 09:41:31;;;;;;;24.47;10.50;;;;;;;10.92;66.37;101262.19;124811;1099;104220;-73
2022/11/07 09:44:17;;;;;;;22.83;10.10;;;;;;;10.97;66.10;101258.06;124840;1099;104172;-72
2022/11/07 09:46:59;;;;;;;23.83;10.83;;;;;;;10.98;65.52;101257.22;124727;1099;104235;-73
2022/11/07 09:49:37;;;;;;;23.07;11.03;;;;;;;10.98;65.71;101251.97;124683;1099;104415;-72
2022/11/07 09:52:17;;;;;;;22.10;10.20;;;;;;;11.03;65.92;101242.59;124700;1099;102518;-74
2022/11/07 09:54:55;;;;;;;20.57;9.57;;;;;;;11.14;66.04;101243.05;124706;1099;104278;-73
2022/11/07 09:57:30;;;;;;;22.57;9.63;;;;;;;11.20;65.58;101234.56;124295;1099;104169;-73
2022/11/07 10:00:02;;;;;;;;;;;;;;;11.24;64.72;101228.62;124810;1099;104239;-73
2022/11/07 10:02:41;;;;;;;25.03;9.77;;;;;;;11.29;65.25;101221.84;124737;1099;104198;-73
2022/11/07 10:05:24;;;;;;;20.95;10.25;;;;;;;11.27;64.83;101224.39;124864;1099;104626;-73
2022/11/07 10:08:03;;;;;;;23.07;9.97;;;;;;;11.24;64.71;101223.37;124699;1099;102799;-74
2022/11/07 10:10:44;;;;;;;21.03;10.07;;;;;;;11.28;65.02;101220.95;124751;1099;104165;-75
2022/11/07 10:13:56;;;;;;;19.50;8.83;;;;;;;11.30;64.63;101208.77;124761;1098;102813;-74
2022/11/07 10:16:39;;;;;;;20.53;8.83;;;;;;;11.37;64.63;101203.78;124665;1099;107132;-74
2022/11/07 10:19:30;;;;;;;19.73;9.50;;;;;;;11.44;64.70;101204.12;124750;1099;102267;-73
2022/11/07 10:22:11;;;;;;;18.93;8.93;;;;;;;11.44;63.81;101200.60;124714;1098;104325;-73
2022/11/07 10:24:57;;;;;;;22.50;9.10;;;;;;;11.35;63.40;101205.45;124740;1099;104242;-74
2022/11/07 10:27:31;;;;;;;20.13;8.93;;;;;;;11.30;62.24;101203.52;124734;1099;104310;-73
2022/11/07 10:30:09;;;;;;;18.87;9.20;;;;;;;11.25;63.41;101198.88;124765;1099;104160;-74
2022/11/07 10:32:52;;;;;;;19.87;9.30;;;;;;;11.29;63.58;101206.07;124751;1099;104160;-74
2022/11/07 10:35:30;;;;;;;20.90;8.90;;;;;;;11.28;63.06;101201.63;125941;1098;104201;-75
2022/11/07 10:41:41;;;;;;;19.37;8.90;;;;;;;11.17;62.36;101200.27;124685;1099;104235;-73
2022/11/07 10:44:19;;;;;;;19.23;8.93;;;;;;;11.19;62.75;101195.97;124566;1099;104412;-75
2022/11/07 10:46:52;;;;;;;18.47;8.80;;;;;;;11.17;60.99;101195.91;124600;1099;104178;-74
2022/11/07 10:49:27;;;;;;;21.40;9.30;;;;;;;11.08;62.32;101184.98;124588;1099;104198;-74
2022/11/07 10:52:09;;;;;;;21.50;9.23;;;;;;;11.19;62.73;101196.89;124651;1099;104213;-74
2022/11/07 10:54:42;;;;;;;23.63;9.40;;;;;;;11.21;62.24;101199.59;124525;1099;104338;-75
2022/11/07 10:57:18;;;;;;;21.40;9.60;;;;;;;11.23;62.45;101198.80;124583;1099;102907;-75
2022/11/07 10:59:59;;;;;;;21.53;9.50;;;;;;;11.27;62.43;101189.36;124558;1099;102979;-74
2022/11/07 11:02:41;;;;;;;20.77;8.97;;;;;;;11.31;62.52;101193.89;124577;1099;104270;-74
2022/11/07 11:05:24;;;;;;;18.73;8.30;;;;;;;11.38;62.68;101185.45;124139;1099;104373;-74
2022/11/07 11:08:08;;;;;;;20.10;9.10;;;;;;;11.42;62.67;101186.48;124543;1099;103123;-74
2022/11/07 11:10:42;;;;;;;21.27;9.20;;;;;;;11.46;62.42;101188.41;124510;1099;104122;-74
2022/11/07 11:16:28;;;;;;;19.83;8.80;;;;;;;11.39;61.98;101174.12;124544;1102;104020;-73
2022/11/07 11:19:05;;;;;;;21.43;9.67;;;;;;;11.42;62.25;101182.14;123891;1102;104195;-73
2022/11/07 11:21:45;;;;;;;21.45;9.60;;;;;;;11.42;61.65;101179.52;123958;1102;102210;-73
2022/11/07 11:24:25;;;;;;;20.13;8.97;;;;;;;11.38;61.77;101185.45;123918;1102;104322;-73
2022/11/07 11:27:00;;;;;;;18.97;8.77;;;;;;;11.35;62.04;101179.18;123881;1105;104333;-73
2022/11/07 11:29:38;;;;;;;19.60;8.40;;;;;;;11.28;61.09;101178.91;123938;1102;104212;-73
2022/11/07 11:32:20;;;;;;;18.13;8.53;;;;;;;11.25;61.67;101173.52;123987;1102;102270;-74
2022/11/07 11:35:08;;;;;;;19.03;9.10;;;;;;;11.23;61.15;101174.28;124029;1102;104203;-73
2022/11/07 11:37:58;;;;;;;20.27;9.10;;;;;;;11.21;61.48;101176.83;123982;1102;118303;-73
2022/11/07 11:40:36;;;;;;;21.40;9.30;;;;;;;11.20;61.37;101166.26;123922;1105;101932;-75
2022/11/07 11:43:19;;;;;;;22.17;8.53;;;;;;;11.16;60.74;101167.86;123973;1102;102426;-74
2022/11/07 11:46:03;;;;;;;19.70;8.27;;;;;;;11.14;60.97;101164.25;123964;1102;104271;-74
2022/11/07 11:48:41;;;;;;;21.45;8.78;;;;;;;11.14;61.10;101161.63;123936;1102;104178;-75
2022/11/07 11:51:20;;;;;;;21.00;9.80;;;;;;;11.17;61.06;101163.50;123990;1102;104198;-74
2022/11/07 11:54:01;;;;;;;23.27;11.80;;;;;;;11.17;60.93;101158.24;124008;1102;104265;-75